WUK8DX EGGW-LFBD
Flight info
| Callsign | WUK8DX |
|---|---|
| Flight time | 1h 28m |
| Altitude | 33000 |
| Route | RODNI N27 ICTAM Q63 CPT N859 VAPID UN859 SOPIL DCT BALAN DCT LMG |
| Aircraft | A21N/M-SDE2E3FGHIRWXY/LB1 |
Departure
| Time | 2026-05-04 12:35 |
|---|---|
| Airport | London Luton Airport (EGGW) |
Arrival
| Time | 2026-05-04 14:04 |
|---|---|
| Airport | Bordeaux–Mérignac Airport (LFBD) |
| Time | Latitude | Longitude | Altitude | Speed | Heading |
|---|---|---|---|---|---|
| 2026-05-04 11:35 | 51.88092 | -0.37265 | 0 ft | 0 kts | 342° |
| 2026-05-04 12:23 | 51.88088 | -0.37263 | 514 ft | 2 kts | 342° |
| 2026-05-04 12:23 | 51.88070 | -0.37254 | 514 ft | 3 kts | 343° |
| 2026-05-04 12:23 | 51.88051 | -0.37249 | 514 ft | 3 kts | 9° |
| 2026-05-04 12:23 | 51.88035 | -0.37259 | 514 ft | 3 kts | 49° |
| 2026-05-04 12:24 | 51.88029 | -0.37276 | 514 ft | 1 kts | 72° |
| 2026-05-04 12:24 | 51.88024 | -0.37301 | 514 ft | 3 kts | 72° |
| 2026-05-04 12:24 | 51.88020 | -0.37317 | 514 ft | 3 kts | 72° |
| 2026-05-04 12:24 | 51.88027 | -0.37286 | 514 ft | 2 kts | 72° |
| 2026-05-04 12:25 | 51.88029 | -0.37276 | 514 ft | 0 kts | 72° |
| 2026-05-04 12:29 | 51.88029 | -0.37275 | 514 ft | 1 kts | 72° |
| 2026-05-04 12:29 | 51.88035 | -0.37248 | 514 ft | 4 kts | 71° |
| 2026-05-04 12:29 | 51.88041 | -0.37186 | 514 ft | 7 kts | 96° |
| 2026-05-04 12:30 | 51.87996 | -0.37121 | 514 ft | 11 kts | 159° |
| 2026-05-04 12:30 | 51.87914 | -0.37077 | 514 ft | 14 kts | 161° |
| 2026-05-04 12:30 | 51.87809 | -0.37020 | 520 ft | 18 kts | 162° |
| 2026-05-04 12:30 | 51.87689 | -0.36957 | 528 ft | 9 kts | 162° |
| 2026-05-04 12:31 | 51.87627 | -0.36994 | 527 ft | 11 kts | 240° |
| 2026-05-04 12:31 | 51.87602 | -0.37127 | 527 ft | 14 kts | 253° |
| 2026-05-04 12:31 | 51.87577 | -0.37286 | 527 ft | 15 kts | 265° |
| 2026-05-04 12:31 | 51.87579 | -0.37418 | 528 ft | 11 kts | 250° |
| 2026-05-04 12:32 | 51.87516 | -0.37504 | 527 ft | 13 kts | 237° |
| 2026-05-04 12:32 | 51.87453 | -0.37826 | 528 ft | 17 kts | 255° |
| 2026-05-04 12:32 | 51.87425 | -0.37983 | 529 ft | 11 kts | 243° |
| 2026-05-04 12:33 | 51.87364 | -0.38069 | 528 ft | 13 kts | 208° |
| 2026-05-04 12:33 | 51.87279 | -0.38112 | 528 ft | 12 kts | 180° |
| 2026-05-04 12:33 | 51.87231 | -0.38186 | 529 ft | 11 kts | 251° |
| 2026-05-04 12:33 | 51.87194 | -0.38277 | 527 ft | 7 kts | 241° |
| 2026-05-04 12:34 | 51.87215 | -0.38315 | 526 ft | 7 kts | 43° |
| 2026-05-04 12:34 | 51.87223 | -0.38234 | 528 ft | 9 kts | 72° |
| 2026-05-04 12:34 | 51.87229 | -0.38201 | 529 ft | 0 kts | 74° |
| 2026-05-04 12:34 | 51.87241 | -0.38133 | 529 ft | 32 kts | 74° |
| 2026-05-04 12:35 | 51.87375 | -0.37350 | 528 ft | 111 kts | 74° |
| 2026-05-04 12:35 | 51.87654 | -0.35795 | 652 ft | 162 kts | 73° |
| 2026-05-04 12:35 | 51.87978 | -0.33980 | 1537 ft | 173 kts | 72° |
| 2026-05-04 12:35 | 51.88323 | -0.32004 | 2210 ft | 191 kts | 73° |
| 2026-05-04 12:36 | 51.88700 | -0.29852 | 2807 ft | 206 kts | 74° |
| 2026-05-04 12:36 | 51.89105 | -0.27541 | 3418 ft | 224 kts | 74° |
| 2026-05-04 12:36 | 51.89406 | -0.24940 | 3853 ft | 248 kts | 91° |
| 2026-05-04 12:36 | 51.88972 | -0.22176 | 4486 ft | 261 kts | 118° |
| 2026-05-04 12:37 | 51.87762 | -0.19982 | 5349 ft | 266 kts | 147° |
| 2026-05-04 12:37 | 51.86037 | -0.18928 | 6181 ft | 269 kts | 174° |
| 2026-05-04 12:37 | 51.84181 | -0.19301 | 6726 ft | 272 kts | 202° |
| 2026-05-04 12:37 | 51.82650 | -0.21009 | 6948 ft | 272 kts | 229° |
| 2026-05-04 12:38 | 51.81772 | -0.23704 | 7042 ft | 273 kts | 256° |
| 2026-05-04 12:38 | 51.81766 | -0.26749 | 7069 ft | 274 kts | 284° |
| 2026-05-04 12:38 | 51.82558 | -0.29541 | 7075 ft | 275 kts | 299° |
| 2026-05-04 12:38 | 51.83203 | -0.32413 | 7046 ft | 273 kts | 273° |
| 2026-05-04 12:39 | 51.82929 | -0.35418 | 7198 ft | 270 kts | 253° |
| 2026-05-04 12:39 | 51.82373 | -0.38357 | 7898 ft | 277 kts | 252° |
| 2026-05-04 12:39 | 51.81855 | -0.41227 | 8733 ft | 279 kts | 253° |
| 2026-05-04 12:39 | 51.81327 | -0.44365 | 9735 ft | 279 kts | 255° |
| 2026-05-04 12:40 | 51.80835 | -0.47398 | 10486 ft | 285 kts | 255° |
| 2026-05-04 12:40 | 51.80331 | -0.50604 | 10905 ft | 303 kts | 255° |
| 2026-05-04 12:40 | 51.79814 | -0.53984 | 11337 ft | 319 kts | 255° |
| 2026-05-04 12:40 | 51.79272 | -0.57533 | 11982 ft | 326 kts | 255° |
| 2026-05-04 12:41 | 51.78798 | -0.60611 | 12653 ft | 330 kts | 255° |
| 2026-05-04 12:41 | 51.78239 | -0.64216 | 13450 ft | 333 kts | 255° |
| 2026-05-04 12:41 | 51.77671 | -0.67864 | 14187 ft | 337 kts | 255° |
| 2026-05-04 12:41 | 51.77100 | -0.71551 | 14877 ft | 341 kts | 255° |
| 2026-05-04 12:42 | 51.76528 | -0.75289 | 15573 ft | 344 kts | 254° |
| 2026-05-04 12:42 | 51.75682 | -0.78912 | 16240 ft | 347 kts | 240° |
| 2026-05-04 12:42 | 51.74229 | -0.82019 | 16942 ft | 349 kts | 226° |
| 2026-05-04 12:42 | 51.72507 | -0.84801 | 17625 ft | 352 kts | 223° |
| 2026-05-04 12:43 | 51.70745 | -0.87567 | 18299 ft | 356 kts | 223° |
| 2026-05-04 12:43 | 51.68971 | -0.90373 | 18886 ft | 359 kts | 223° |
| 2026-05-04 12:43 | 51.67182 | -0.93223 | 19473 ft | 362 kts | 224° |
| 2026-05-04 12:43 | 51.65390 | -0.96088 | 20066 ft | 365 kts | 224° |
| 2026-05-04 12:44 | 51.63586 | -0.98975 | 20653 ft | 368 kts | 224° |
| 2026-05-04 12:44 | 51.61765 | -1.01886 | 21242 ft | 371 kts | 224° |
| 2026-05-04 12:44 | 51.59927 | -1.04814 | 21809 ft | 374 kts | 224° |
| 2026-05-04 12:44 | 51.58074 | -1.07773 | 22394 ft | 377 kts | 224° |
| 2026-05-04 12:45 | 51.56711 | -1.09953 | 22801 ft | 379 kts | 224° |
| 2026-05-04 12:45 | 51.54909 | -1.12819 | 23344 ft | 382 kts | 224° |
| 2026-05-04 12:45 | 51.54445 | -1.13556 | 23479 ft | 383 kts | 224° |
| 2026-05-04 12:45 | 51.53761 | -1.14641 | 23659 ft | 384 kts | 224° |
| 2026-05-04 12:46 | 51.51876 | -1.17615 | 24122 ft | 386 kts | 222° |
| 2026-05-04 12:46 | 51.49711 | -1.20127 | 24571 ft | 386 kts | 206° |
| 2026-05-04 12:46 | 51.47146 | -1.21421 | 25042 ft | 388 kts | 188° |
| 2026-05-04 12:46 | 51.44444 | -1.21550 | 25525 ft | 390 kts | 175° |
| 2026-05-04 12:47 | 51.41782 | -1.20655 | 25989 ft | 394 kts | 162° |
| 2026-05-04 12:47 | 51.39315 | -1.18758 | 26441 ft | 398 kts | 149° |
| 2026-05-04 12:47 | 51.37176 | -1.15900 | 26877 ft | 404 kts | 135° |
| 2026-05-04 12:47 | 51.35299 | -1.12530 | 27306 ft | 405 kts | 139° |
| 2026-05-04 12:48 | 51.33021 | -1.09943 | 27700 ft | 401 kts | 155° |
| 2026-05-04 12:48 | 51.30489 | -1.08062 | 28133 ft | 401 kts | 159° |
| 2026-05-04 12:48 | 51.27934 | -1.06284 | 28556 ft | 402 kts | 159° |
| 2026-05-04 12:48 | 51.25367 | -1.04474 | 28979 ft | 404 kts | 159° |
| 2026-05-04 12:49 | 51.22798 | -1.02634 | 29387 ft | 405 kts | 158° |
| 2026-05-04 12:49 | 51.20224 | -1.00771 | 29789 ft | 407 kts | 158° |
| 2026-05-04 12:49 | 51.17653 | -0.98901 | 30169 ft | 408 kts | 158° |
| 2026-05-04 12:49 | 51.15064 | -0.97018 | 30462 ft | 410 kts | 158° |
| 2026-05-04 12:50 | 51.12463 | -0.95130 | 30794 ft | 411 kts | 158° |
| 2026-05-04 12:50 | 51.09859 | -0.93243 | 31154 ft | 411 kts | 158° |
| 2026-05-04 12:50 | 51.07259 | -0.91359 | 31492 ft | 411 kts | 158° |
| 2026-05-04 12:50 | 51.04657 | -0.89475 | 31819 ft | 411 kts | 158° |
| 2026-05-04 12:51 | 51.02056 | -0.87594 | 32127 ft | 411 kts | 158° |
| 2026-05-04 12:51 | 50.99449 | -0.85715 | 32443 ft | 411 kts | 158° |
| 2026-05-04 12:51 | 50.98571 | -0.85082 | 32561 ft | 411 kts | 158° |
| 2026-05-04 12:51 | 50.96875 | -0.83860 | 32758 ft | 411 kts | 158° |
| 2026-05-04 12:52 | 50.94272 | -0.81983 | 33001 ft | 412 kts | 157° |
| 2026-05-04 12:52 | 50.89092 | -0.78260 | 33041 ft | 411 kts | 158° |
| 2026-05-04 12:53 | 50.83978 | -0.74170 | 33018 ft | 412 kts | 150° |
| 2026-05-04 12:53 | 50.79159 | -0.69251 | 33011 ft | 412 kts | 149° |
| 2026-05-04 12:54 | 50.74350 | -0.64329 | 33011 ft | 412 kts | 149° |
| 2026-05-04 12:54 | 50.69535 | -0.59437 | 33009 ft | 411 kts | 150° |
| 2026-05-04 12:55 | 50.64717 | -0.54565 | 33007 ft | 411 kts | 150° |
| 2026-05-04 12:55 | 50.59906 | -0.49709 | 33012 ft | 410 kts | 150° |
| 2026-05-04 12:56 | 50.55101 | -0.44872 | 33018 ft | 410 kts | 150° |
| 2026-05-04 12:56 | 50.50289 | -0.40036 | 33022 ft | 410 kts | 150° |
| 2026-05-04 12:57 | 50.45480 | -0.35217 | 33018 ft | 410 kts | 150° |
| 2026-05-04 12:57 | 50.40665 | -0.30407 | 33024 ft | 410 kts | 150° |
| 2026-05-04 12:58 | 50.35854 | -0.25610 | 33025 ft | 410 kts | 150° |
| 2026-05-04 12:58 | 50.31044 | -0.20828 | 33023 ft | 410 kts | 150° |
| 2026-05-04 12:59 | 50.26292 | -0.16111 | 33018 ft | 410 kts | 150° |
| 2026-05-04 12:59 | 50.21447 | -0.11316 | 33016 ft | 410 kts | 150° |
| 2026-05-04 13:00 | 50.16615 | -0.06542 | 33016 ft | 411 kts | 150° |
| 2026-05-04 13:00 | 50.11812 | -0.01823 | 33007 ft | 411 kts | 151° |
| 2026-05-04 13:01 | 50.06561 | 0.01451 | 33009 ft | 407 kts | 167° |
| 2026-05-04 13:01 | 50.01065 | 0.03559 | 33006 ft | 407 kts | 167° |
| 2026-05-04 13:02 | 49.95578 | 0.05686 | 33004 ft | 406 kts | 167° |
| 2026-05-04 13:02 | 49.90093 | 0.07841 | 33006 ft | 406 kts | 167° |
| 2026-05-04 13:03 | 49.84626 | 0.09982 | 33006 ft | 406 kts | 167° |
| 2026-05-04 13:03 | 49.79142 | 0.12127 | 33003 ft | 407 kts | 167° |
| 2026-05-04 13:04 | 49.73652 | 0.14273 | 32997 ft | 407 kts | 167° |
| 2026-05-04 13:04 | 49.68171 | 0.16398 | 32994 ft | 407 kts | 167° |
| 2026-05-04 13:05 | 49.63608 | 0.18222 | 32996 ft | 407 kts | 167° |
| 2026-05-04 13:05 | 49.58140 | 0.20434 | 32996 ft | 407 kts | 167° |
| 2026-05-04 13:06 | 49.52706 | 0.22624 | 32992 ft | 406 kts | 167° |
| 2026-05-04 13:06 | 49.47194 | 0.24838 | 32994 ft | 406 kts | 167° |
| 2026-05-04 13:07 | 49.41723 | 0.27021 | 32996 ft | 406 kts | 167° |
| 2026-05-04 13:07 | 49.36257 | 0.29201 | 32995 ft | 406 kts | 167° |
| 2026-05-04 13:08 | 49.30794 | 0.31382 | 32988 ft | 406 kts | 167° |
| 2026-05-04 13:08 | 49.25344 | 0.33671 | 32985 ft | 405 kts | 166° |
| 2026-05-04 13:09 | 49.19910 | 0.35974 | 32982 ft | 405 kts | 166° |
| 2026-05-04 13:09 | 49.14471 | 0.38264 | 32972 ft | 405 kts | 166° |
| 2026-05-04 13:10 | 49.09038 | 0.40542 | 32970 ft | 405 kts | 166° |
| 2026-05-04 13:10 | 49.03605 | 0.42817 | 32960 ft | 405 kts | 166° |
| 2026-05-04 13:11 | 48.98161 | 0.45089 | 32960 ft | 405 kts | 166° |
| 2026-05-04 13:11 | 48.92723 | 0.47355 | 32958 ft | 405 kts | 166° |
| 2026-05-04 13:12 | 48.87286 | 0.49621 | 32959 ft | 405 kts | 166° |
| 2026-05-04 13:12 | 48.81863 | 0.51872 | 32956 ft | 406 kts | 166° |
| 2026-05-04 13:13 | 48.76394 | 0.54106 | 32956 ft | 406 kts | 167° |
| 2026-05-04 13:13 | 48.70930 | 0.56230 | 32960 ft | 406 kts | 167° |
| 2026-05-04 13:14 | 48.65464 | 0.58360 | 32959 ft | 406 kts | 167° |
| 2026-05-04 13:14 | 48.59994 | 0.60497 | 32968 ft | 406 kts | 167° |
| 2026-05-04 13:15 | 48.54525 | 0.62625 | 32961 ft | 406 kts | 167° |
| 2026-05-04 13:15 | 48.49061 | 0.64787 | 32958 ft | 406 kts | 166° |
| 2026-05-04 13:16 | 48.43652 | 0.67003 | 32953 ft | 406 kts | 166° |
| 2026-05-04 13:16 | 48.38198 | 0.69225 | 32955 ft | 406 kts | 167° |
| 2026-05-04 13:17 | 48.32747 | 0.71435 | 32955 ft | 406 kts | 167° |
| 2026-05-04 13:17 | 48.27291 | 0.73638 | 32949 ft | 406 kts | 167° |
| 2026-05-04 13:18 | 48.21836 | 0.75816 | 32947 ft | 405 kts | 167° |
| 2026-05-04 13:18 | 48.16381 | 0.77959 | 32952 ft | 405 kts | 167° |
| 2026-05-04 13:19 | 48.10922 | 0.80100 | 32955 ft | 406 kts | 167° |
| 2026-05-04 13:19 | 48.05472 | 0.82236 | 32937 ft | 405 kts | 167° |
| 2026-05-04 13:20 | 48.00007 | 0.84373 | 32939 ft | 405 kts | 167° |
| 2026-05-04 13:20 | 47.94586 | 0.86489 | 32942 ft | 405 kts | 167° |
| 2026-05-04 13:21 | 47.89129 | 0.88614 | 32939 ft | 406 kts | 167° |
| 2026-05-04 13:21 | 47.83667 | 0.90736 | 32935 ft | 406 kts | 167° |
| 2026-05-04 13:22 | 47.78200 | 0.92859 | 32918 ft | 406 kts | 167° |
| 2026-05-04 13:22 | 47.72768 | 0.94961 | 32921 ft | 405 kts | 167° |
| 2026-05-04 13:23 | 47.67281 | 0.97077 | 32922 ft | 405 kts | 167° |
| 2026-05-04 13:23 | 47.61821 | 0.99181 | 32924 ft | 405 kts | 167° |
| 2026-05-04 13:24 | 47.56365 | 1.01278 | 32920 ft | 405 kts | 167° |
| 2026-05-04 13:24 | 47.50913 | 1.03370 | 32923 ft | 405 kts | 168° |
| 2026-05-04 13:25 | 47.42705 | 1.06277 | 32920 ft | 403 kts | 175° |
| 2026-05-04 13:25 | 47.37116 | 1.06378 | 32922 ft | 401 kts | 182° |
| 2026-05-04 13:26 | 47.31542 | 1.06198 | 32920 ft | 401 kts | 182° |
| 2026-05-04 13:26 | 47.25967 | 1.06057 | 32921 ft | 401 kts | 182° |
| 2026-05-04 13:27 | 47.20391 | 1.05925 | 32921 ft | 400 kts | 182° |
| 2026-05-04 13:27 | 47.14826 | 1.05794 | 32919 ft | 400 kts | 182° |
| 2026-05-04 13:28 | 47.09268 | 1.05661 | 32917 ft | 399 kts | 182° |
| 2026-05-04 13:28 | 47.03712 | 1.05528 | 32914 ft | 399 kts | 182° |
| 2026-05-04 13:29 | 46.98200 | 1.05340 | 32914 ft | 398 kts | 183° |
| 2026-05-04 13:29 | 46.92631 | 1.05091 | 32919 ft | 398 kts | 183° |
| 2026-05-04 13:30 | 46.87134 | 1.04849 | 32920 ft | 397 kts | 183° |
| 2026-05-04 13:30 | 46.81621 | 1.04616 | 32920 ft | 397 kts | 183° |
| 2026-05-04 13:31 | 46.76094 | 1.04378 | 32921 ft | 396 kts | 183° |
| 2026-05-04 13:31 | 46.70593 | 1.04146 | 32918 ft | 396 kts | 183° |
| 2026-05-04 13:32 | 46.65079 | 1.03913 | 32913 ft | 396 kts | 183° |
| 2026-05-04 13:32 | 46.59573 | 1.03684 | 32914 ft | 395 kts | 183° |
| 2026-05-04 13:33 | 46.54079 | 1.03452 | 32918 ft | 395 kts | 183° |
| 2026-05-04 13:33 | 46.48590 | 1.03312 | 32913 ft | 395 kts | 182° |
| 2026-05-04 13:34 | 46.43096 | 1.03250 | 32920 ft | 395 kts | 182° |
| 2026-05-04 13:34 | 46.37602 | 1.03176 | 32920 ft | 394 kts | 182° |
| 2026-05-04 13:35 | 46.29378 | 1.03066 | 32918 ft | 394 kts | 182° |
| 2026-05-04 13:36 | 46.23887 | 1.03007 | 32918 ft | 394 kts | 182° |
| 2026-05-04 13:36 | 46.18399 | 1.02955 | 32918 ft | 395 kts | 182° |
| 2026-05-04 13:37 | 46.12909 | 1.02894 | 32920 ft | 395 kts | 182° |
| 2026-05-04 13:37 | 46.07415 | 1.02835 | 32920 ft | 395 kts | 182° |
| 2026-05-04 13:38 | 46.01924 | 1.02777 | 32920 ft | 395 kts | 182° |
| 2026-05-04 13:38 | 45.96434 | 1.02714 | 32930 ft | 395 kts | 182° |
| 2026-05-04 13:39 | 45.90932 | 1.02658 | 32937 ft | 395 kts | 182° |
| 2026-05-04 13:39 | 45.85459 | 1.02376 | 32925 ft | 392 kts | 191° |
| 2026-05-04 13:39 | 45.82852 | 1.01331 | 32915 ft | 389 kts | 203° |
| 2026-05-04 13:40 | 45.80539 | 0.99461 | 32847 ft | 386 kts | 215° |
| 2026-05-04 13:40 | 45.78566 | 0.96838 | 32062 ft | 390 kts | 228° |
| 2026-05-04 13:40 | 45.76951 | 0.93710 | 31366 ft | 390 kts | 232° |
| 2026-05-04 13:40 | 45.75405 | 0.90539 | 30823 ft | 385 kts | 231° |
| 2026-05-04 13:41 | 45.73868 | 0.87443 | 30321 ft | 379 kts | 231° |
| 2026-05-04 13:41 | 45.72336 | 0.84398 | 29792 ft | 374 kts | 231° |
| 2026-05-04 13:41 | 45.70818 | 0.81408 | 29219 ft | 369 kts | 230° |
| 2026-05-04 13:42 | 45.67841 | 0.75576 | 28233 ft | 357 kts | 230° |
| 2026-05-04 13:42 | 45.66392 | 0.72744 | 27734 ft | 351 kts | 230° |
| 2026-05-04 13:42 | 45.64954 | 0.69944 | 27276 ft | 347 kts | 230° |
| 2026-05-04 13:42 | 45.63528 | 0.67173 | 26805 ft | 344 kts | 230° |
| 2026-05-04 13:43 | 45.62118 | 0.64429 | 26339 ft | 342 kts | 230° |
| 2026-05-04 13:43 | 45.60716 | 0.61703 | 25870 ft | 340 kts | 230° |
| 2026-05-04 13:43 | 45.59323 | 0.58996 | 25408 ft | 338 kts | 230° |
| 2026-05-04 13:43 | 45.57931 | 0.56287 | 24963 ft | 336 kts | 230° |
| 2026-05-04 13:44 | 45.56547 | 0.53604 | 24499 ft | 335 kts | 230° |
| 2026-05-04 13:44 | 45.55168 | 0.50936 | 24030 ft | 334 kts | 230° |
| 2026-05-04 13:44 | 45.53793 | 0.48269 | 23570 ft | 333 kts | 230° |
| 2026-05-04 13:44 | 45.52421 | 0.45609 | 23069 ft | 331 kts | 230° |
| 2026-05-04 13:45 | 45.51060 | 0.42979 | 22588 ft | 329 kts | 230° |
| 2026-05-04 13:45 | 45.49707 | 0.40361 | 22087 ft | 327 kts | 231° |
| 2026-05-04 13:45 | 45.48361 | 0.37766 | 21603 ft | 324 kts | 230° |
| 2026-05-04 13:45 | 45.47023 | 0.35189 | 21148 ft | 321 kts | 230° |
| 2026-05-04 13:46 | 45.45700 | 0.32643 | 20698 ft | 318 kts | 231° |
| 2026-05-04 13:46 | 45.44393 | 0.30122 | 20251 ft | 315 kts | 231° |
| 2026-05-04 13:46 | 45.43095 | 0.27629 | 19839 ft | 312 kts | 231° |
| 2026-05-04 13:46 | 45.41829 | 0.25190 | 19401 ft | 309 kts | 231° |
| 2026-05-04 13:47 | 45.40536 | 0.22712 | 18914 ft | 308 kts | 231° |
| 2026-05-04 13:47 | 45.39256 | 0.20262 | 18403 ft | 308 kts | 231° |
| 2026-05-04 13:47 | 45.37995 | 0.17851 | 17831 ft | 309 kts | 231° |
| 2026-05-04 13:47 | 45.36689 | 0.15353 | 17235 ft | 310 kts | 231° |
| 2026-05-04 13:48 | 45.35415 | 0.12914 | 16659 ft | 312 kts | 231° |
| 2026-05-04 13:48 | 45.34110 | 0.10383 | 16072 ft | 315 kts | 232° |
| 2026-05-04 13:48 | 45.32817 | 0.07848 | 15490 ft | 318 kts | 232° |
| 2026-05-04 13:48 | 45.31519 | 0.05320 | 14911 ft | 315 kts | 232° |
| 2026-05-04 13:49 | 45.30234 | 0.02821 | 14331 ft | 312 kts | 232° |
| 2026-05-04 13:49 | 45.28954 | 0.00336 | 13764 ft | 310 kts | 232° |
| 2026-05-04 13:49 | 45.28124 | -0.01275 | 13334 ft | 308 kts | 232° |
| 2026-05-04 13:49 | 45.26447 | -0.04546 | 12498 ft | 304 kts | 233° |
| 2026-05-04 13:50 | 45.25624 | -0.06152 | 12121 ft | 302 kts | 233° |
| 2026-05-04 13:50 | 45.24394 | -0.08546 | 11554 ft | 299 kts | 233° |
| 2026-05-04 13:50 | 45.23177 | -0.10911 | 10999 ft | 295 kts | 233° |
| 2026-05-04 13:50 | 45.21969 | -0.13252 | 10459 ft | 292 kts | 233° |
| 2026-05-04 13:51 | 45.20391 | -0.16303 | 9837 ft | 285 kts | 233° |
| 2026-05-04 13:51 | 45.19611 | -0.17814 | 9623 ft | 278 kts | 233° |
| 2026-05-04 13:51 | 45.18480 | -0.20009 | 9102 ft | 275 kts | 233° |
| 2026-05-04 13:51 | 45.16978 | -0.22884 | 8357 ft | 273 kts | 231° |
| 2026-05-04 13:52 | 45.14800 | -0.26150 | 7482 ft | 271 kts | 225° |
| 2026-05-04 13:52 | 45.13487 | -0.28029 | 7071 ft | 265 kts | 226° |
| 2026-05-04 13:52 | 45.12237 | -0.29829 | 7035 ft | 247 kts | 226° |
| 2026-05-04 13:53 | 45.11017 | -0.31588 | 7116 ft | 249 kts | 226° |
| 2026-05-04 13:53 | 45.09740 | -0.33242 | 7138 ft | 250 kts | 214° |
| 2026-05-04 13:53 | 45.08119 | -0.34082 | 7130 ft | 253 kts | 190° |
| 2026-05-04 13:54 | 45.04652 | -0.34526 | 7112 ft | 253 kts | 187° |
| 2026-05-04 13:54 | 45.02897 | -0.34741 | 7152 ft | 253 kts | 187° |
| 2026-05-04 13:54 | 44.99421 | -0.35199 | 7154 ft | 252 kts | 188° |
| 2026-05-04 13:55 | 44.97644 | -0.35443 | 7054 ft | 253 kts | 188° |
| 2026-05-04 13:55 | 44.94190 | -0.35925 | 6513 ft | 247 kts | 188° |
| 2026-05-04 13:55 | 44.92522 | -0.36158 | 6296 ft | 235 kts | 188° |
| 2026-05-04 13:56 | 44.90918 | -0.36382 | 5993 ft | 229 kts | 189° |
| 2026-05-04 13:56 | 44.89337 | -0.36607 | 5586 ft | 228 kts | 189° |
| 2026-05-04 13:56 | 44.86175 | -0.37065 | 4939 ft | 229 kts | 189° |
| 2026-05-04 13:57 | 44.84608 | -0.37432 | 4649 ft | 227 kts | 199° |
| 2026-05-04 13:57 | 44.83095 | -0.38059 | 4340 ft | 225 kts | 200° |
| 2026-05-04 13:58 | 44.78706 | -0.39961 | 3611 ft | 206 kts | 204° |
| 2026-05-04 13:58 | 44.76762 | -0.42460 | 3434 ft | 193 kts | 259° |
| 2026-05-04 13:58 | 44.76862 | -0.44325 | 3250 ft | 194 kts | 285° |
| 2026-05-04 13:59 | 44.77327 | -0.46098 | 3015 ft | 191 kts | 290° |
| 2026-05-04 13:59 | 44.77815 | -0.47831 | 2960 ft | 193 kts | 289° |
| 2026-05-04 13:59 | 44.78587 | -0.51141 | 2916 ft | 160 kts | 285° |
| 2026-05-04 14:00 | 44.78888 | -0.52570 | 2724 ft | 146 kts | 286° |
| 2026-05-04 14:00 | 44.79461 | -0.55297 | 2356 ft | 145 kts | 285° |
| 2026-05-04 14:00 | 44.79743 | -0.56644 | 2158 ft | 143 kts | 284° |
| 2026-05-04 14:01 | 44.80028 | -0.58000 | 1992 ft | 145 kts | 285° |
| 2026-05-04 14:01 | 44.80311 | -0.59351 | 1828 ft | 140 kts | 285° |
| 2026-05-04 14:01 | 44.80829 | -0.61822 | 1427 ft | 131 kts | 286° |
| 2026-05-04 14:02 | 44.81087 | -0.63049 | 1246 ft | 128 kts | 286° |
| 2026-05-04 14:02 | 44.81338 | -0.64245 | 1058 ft | 129 kts | 287° |
| 2026-05-04 14:02 | 44.81590 | -0.65452 | 864 ft | 127 kts | 287° |
| 2026-05-04 14:02 | 44.81843 | -0.66660 | 701 ft | 131 kts | 289° |
| 2026-05-04 14:03 | 44.82102 | -0.67895 | 524 ft | 131 kts | 290° |
| 2026-05-04 14:03 | 44.82362 | -0.69138 | 341 ft | 132 kts | 289° |
| 2026-05-04 14:03 | 44.82616 | -0.70372 | 176 ft | 130 kts | 288° |
| 2026-05-04 14:03 | 44.82829 | -0.71375 | 166 ft | 78 kts | 287° |
| 2026-05-04 14:04 | 44.82980 | -0.72085 | 173 ft | 19 kts | 287° |
| 2026-05-04 14:04 | 44.83063 | -0.72125 | 171 ft | 15 kts | 16° |
| 2026-05-04 14:04 | 44.83160 | -0.72057 | 172 ft | 14 kts | 68° |
| 2026-05-04 14:05 | 44.83114 | -0.71746 | 172 ft | 18 kts | 107° |
| 2026-05-04 14:05 | 44.83076 | -0.71565 | 170 ft | 20 kts | 107° |
| 2026-05-04 14:05 | 44.83031 | -0.71371 | 171 ft | 22 kts | 105° |
| 2026-05-04 14:06 | 44.82986 | -0.71164 | 167 ft | 23 kts | 109° |
| 2026-05-04 14:06 | 44.82954 | -0.70994 | 169 ft | 9 kts | 91° |
| 2026-05-04 14:06 | 44.82990 | -0.70906 | 171 ft | 12 kts | 44° |
| 2026-05-04 14:06 | 44.83045 | -0.70828 | 171 ft | 11 kts | 45° |
| 2026-05-04 14:07 | 44.83105 | -0.70745 | 171 ft | 13 kts | 45° |
| 2026-05-04 14:07 | 44.83172 | -0.70645 | 171 ft | 15 kts | 46° |
| 2026-05-04 14:07 | 44.83201 | -0.70568 | 171 ft | 8 kts | 102° |
| 2026-05-04 14:07 | 44.83192 | -0.70506 | 171 ft | 7 kts | 74° |
| 2026-05-04 14:08 | 44.83229 | -0.70442 | 171 ft | 10 kts | 42° |
| 2026-05-04 14:08 | 44.83278 | -0.70375 | 171 ft | 12 kts | 44° |
| 2026-05-04 14:08 | 44.83319 | -0.70317 | 171 ft | 5 kts | 56° |
| 2026-05-04 14:08 | 44.83302 | -0.70287 | 171 ft | 5 kts | 162° |
| 2026-05-04 14:09 | 44.83260 | -0.70282 | 171 ft | 0 kts | 182° |